createdAt,value
2022-08-27T00:30:08.668Z,0
2022-08-27T00:30:49.442Z,0
2022-08-27T00:31:30.500Z,0
2022-08-27T00:32:11.450Z,0
2022-08-27T00:32:52.331Z,0
2022-08-27T00:33:33.359Z,0
2022-08-27T00:36:58.701Z,0
2022-08-27T00:37:39.894Z,0
2022-08-27T00:38:20.659Z,0
2022-08-27T00:39:01.671Z,0
2022-08-27T00:39:42.609Z,0
2022-08-27T00:40:23.662Z,0
2022-08-27T00:43:48.509Z,0
2022-08-27T00:44:29.464Z,0
2022-08-27T00:45:10.426Z,0
2022-08-27T00:45:51.505Z,0
2022-08-27T00:47:13.504Z,0
2022-08-27T00:50:38.471Z,0
2022-08-27T00:51:19.432Z,0
2022-08-27T00:52:00.414Z,0
2022-08-27T00:52:41.396Z,0
2022-08-27T00:53:22.411Z,0
2022-08-27T00:54:03.363Z,0
2022-08-27T00:57:28.243Z,0
2022-08-27T00:58:09.385Z,0
2022-08-27T00:58:50.146Z,0
2022-08-27T00:59:31.214Z,0
2022-08-27T01:00:12.128Z,0
2022-08-27T01:00:53.117Z,0
2022-08-27T01:04:18.182Z,0
2022-08-27T01:04:59.007Z,0
2022-08-27T01:05:40.038Z,0
2022-08-27T01:06:21.007Z,0
2022-08-27T01:07:01.983Z,0
2022-08-27T01:07:42.935Z,0
2022-08-27T01:11:48.835Z,0
2022-08-27T01:12:29.772Z,0
2022-08-27T01:13:10.784Z,0
2022-08-27T01:13:59.445Z,0
2022-08-27T01:14:32.843Z,0
2022-08-27T01:18:38.717Z,0
2022-08-27T01:19:19.750Z,0
2022-08-27T01:20:00.734Z,0
2022-08-27T01:20:41.680Z,0
2022-08-27T01:21:22.642Z,0
2022-08-27T01:25:28.701Z,0
2022-08-27T01:26:09.706Z,0
2022-08-27T01:26:50.665Z,0
2022-08-27T01:27:31.612Z,0
2022-08-27T01:28:12.612Z,0
2022-08-27T01:28:53.491Z,0
2022-08-27T01:32:18.432Z,0
2022-08-27T01:32:59.478Z,0
2022-08-27T01:33:40.436Z,0
2022-08-27T01:34:21.425Z,0
2022-08-27T01:35:02.456Z,0
2022-08-27T01:35:43.414Z,0
2022-08-27T01:39:08.386Z,0
2022-08-27T01:39:49.417Z,0
2022-08-27T01:40:30.359Z,0
2022-08-27T01:41:11.346Z,0
2022-08-27T01:41:52.326Z,0
2022-08-27T01:45:58.290Z,0
2022-08-27T01:46:39.286Z,0
2022-08-27T01:47:20.231Z,0
2022-08-27T01:48:01.296Z,0
2022-08-27T01:48:42.284Z,0
2022-08-27T01:49:23.289Z,0
2022-08-27T01:52:48.335Z,0
2022-08-27T01:53:29.344Z,0
2022-08-27T01:54:10.357Z,0
2022-08-27T01:54:51.233Z,0
2022-08-27T01:55:32.266Z,0
2022-08-27T01:56:13.174Z,0
2022-08-27T01:59:39.288Z,0
2022-08-27T02:00:18.939Z,0
2022-08-27T02:01:00.013Z,0
2022-08-27T02:01:40.966Z,0
2022-08-27T02:02:22.055Z,0
2022-08-27T02:03:02.973Z,0
2022-08-27T02:06:27.861Z,0
2022-08-27T02:07:08.859Z,0
2022-08-27T02:09:21.833Z,0
2022-08-27T02:10:02.308Z,0
2022-08-27T02:10:42.775Z,0
2022-08-27T02:11:23.196Z,0
2022-08-27T02:12:03.670Z,0
2022-08-27T02:12:44.117Z,0
2022-08-27T02:13:24.609Z,0
2022-08-27T02:14:05.582Z,0
2022-08-27T02:14:45.576Z,0
2022-08-27T02:15:26.094Z,0
2022-08-27T02:16:06.669Z,0
2022-08-27T02:22:11.724Z,0
2022-08-27T02:22:52.171Z,0
2022-08-27T02:23:32.651Z,0
2022-08-27T02:24:13.157Z,0
2022-08-27T02:24:53.651Z,0
2022-08-27T02:25:34.160Z,0
2022-08-27T02:26:14.667Z,0
2022-08-27T02:26:55.143Z,0
2022-08-27T02:27:35.616Z,0
2022-08-27T02:28:16.089Z,0
2022-08-27T02:28:56.539Z,0
2022-08-27T02:36:21.785Z,0
2022-08-27T02:37:02.304Z,0
2022-08-27T02:38:23.288Z,0
2022-08-27T02:39:03.775Z,0
2022-08-27T02:39:46.044Z,0
2022-08-27T02:40:24.788Z,0
2022-08-27T02:41:05.242Z,0
2022-08-27T02:41:45.703Z,0
2022-08-27T02:42:26.201Z,0
2022-08-27T02:49:51.544Z,0
2022-08-27T02:50:32.046Z,0
2022-08-27T02:51:12.609Z,0
2022-08-27T02:51:53.106Z,0
2022-08-27T02:52:33.573Z,0
2022-08-27T02:53:14.058Z,0
2022-08-27T02:53:54.547Z,0
2022-08-27T02:54:34.964Z,0
2022-08-27T02:55:17.370Z,0
2022-08-27T02:55:55.989Z,0
2022-08-27T02:56:36.429Z,0
2022-08-27T03:04:01.682Z,0
2022-08-27T03:04:42.186Z,0
2022-08-27T03:05:22.668Z,0
2022-08-27T03:06:03.116Z,0
2022-08-27T03:06:43.587Z,0
2022-08-27T03:07:24.052Z,0
2022-08-27T03:08:04.611Z,0
2022-08-27T03:08:52.535Z,0
2022-08-27T03:09:25.491Z,0
2022-08-27T03:10:05.959Z,0
2022-08-27T03:10:46.468Z,0
2022-08-27T03:18:11.819Z,0
2022-08-27T03:18:52.178Z,0
2022-08-27T03:19:32.654Z,0
2022-08-27T03:20:13.134Z,0
2022-08-27T03:20:53.640Z,0
2022-08-27T03:21:34.167Z,0
2022-08-27T03:22:14.613Z,0
2022-08-27T03:22:55.070Z,0
2022-08-27T03:23:35.549Z,0
2022-08-27T03:24:16.074Z,0
2022-08-27T03:24:56.518Z,0
2022-08-27T03:31:41.496Z,0
2022-08-27T03:32:21.883Z,0
2022-08-27T03:33:02.352Z,0
2022-08-27T03:33:42.846Z,0
2022-08-27T03:34:23.311Z,0
2022-08-27T03:35:03.861Z,0
2022-08-27T03:36:24.818Z,0
2022-08-27T03:37:05.269Z,0
2022-08-27T03:37:45.724Z,0
2022-08-27T03:38:26.190Z,0
2022-08-27T03:39:06.704Z,0
2022-08-27T03:46:00.350Z,0
2022-08-27T03:46:32.198Z,0
2022-08-27T03:47:12.670Z,0
2022-08-27T03:47:53.214Z,0
2022-08-27T03:48:33.614Z,0
2022-08-27T03:49:14.096Z,0
2022-08-27T03:49:54.559Z,0
2022-08-27T03:50:35.043Z,0
2022-08-27T03:51:15.506Z,0
2022-08-27T03:51:56.003Z,0
2022-08-27T03:52:36.513Z,0
2022-08-27T04:00:01.790Z,0
2022-08-27T04:00:42.302Z,0
2022-08-27T04:01:22.792Z,0
2022-08-27T04:02:03.278Z,0
2022-08-27T04:02:43.769Z,0
2022-08-27T04:03:24.257Z,0
2022-08-27T04:04:04.738Z,0
2022-08-27T04:04:45.206Z,0
2022-08-27T04:05:25.662Z,0
2022-08-27T04:06:06.121Z,0
2022-08-27T04:06:46.656Z,0
2022-08-27T04:13:31.545Z,0
2022-08-27T04:14:13.898Z,0
2022-08-27T04:14:52.496Z,0
2022-08-27T04:15:32.975Z,0
2022-08-27T04:16:13.469Z,0
2022-08-27T04:16:53.934Z,0
2022-08-27T04:17:34.423Z,0
2022-08-27T04:18:14.867Z,0
2022-08-27T04:18:55.424Z,0
2022-08-27T04:19:35.872Z,0
2022-08-27T04:20:34.364Z,0
2022-08-27T04:27:41.657Z,0
2022-08-27T04:28:22.157Z,0
2022-08-27T04:29:02.618Z,0
2022-08-27T04:29:43.107Z,0
2022-08-27T04:30:23.627Z,0
2022-08-27T04:31:04.142Z,0
2022-08-27T04:31:44.638Z,0
2022-08-27T04:32:24.993Z,0
2022-08-27T04:33:05.472Z,0
2022-08-27T04:33:50.749Z,0
2022-08-27T04:34:26.431Z,0
2022-08-27T04:41:51.645Z,4
2022-08-27T04:42:32.065Z,4
2022-08-27T04:43:12.555Z,4
2022-08-27T04:43:53.015Z,4
2022-08-27T04:44:33.477Z,4
2022-08-27T04:45:13.932Z,8
2022-08-27T04:45:54.430Z,8
2022-08-27T04:46:34.896Z,8
2022-08-27T04:47:15.379Z,8
2022-08-27T04:47:55.890Z,4
2022-08-27T04:48:36.387Z,4
2022-08-27T04:57:41.073Z,12
2022-08-27T04:58:21.880Z,12
2022-08-27T04:59:02.329Z,12
2022-08-27T04:59:42.860Z,8
2022-08-27T05:00:23.296Z,12
2022-08-27T05:01:03.827Z,12
2022-08-27T05:01:44.524Z,12
2022-08-27T05:06:05.520Z,16
2022-08-27T05:06:46.393Z,16
2022-08-27T05:07:26.823Z,20
2022-08-27T05:08:07.355Z,16
2022-08-27T05:08:47.747Z,16
2022-08-27T05:09:28.290Z,20
2022-08-27T05:11:41.067Z,20
2022-08-27T05:12:21.526Z,20
2022-08-27T05:13:02.036Z,20
2022-08-27T05:13:42.504Z,20
2022-08-27T05:14:22.973Z,20
2022-08-27T05:15:03.501Z,20
2022-08-27T05:15:44.038Z,20
2022-08-27T05:16:24.568Z,20
2022-08-27T05:17:05.019Z,20
2022-08-27T05:17:45.456Z,24
2022-08-27T05:18:26.006Z,24
2022-08-27T05:25:10.761Z,36
2022-08-27T05:25:51.290Z,36
2022-08-27T05:26:31.729Z,36
2022-08-27T05:27:12.963Z,36
2022-08-27T05:27:52.703Z,36
2022-08-27T05:28:33.171Z,36
2022-08-27T05:29:54.105Z,36
2022-08-27T05:30:34.632Z,40
2022-08-27T05:31:15.198Z,40
2022-08-27T05:31:55.601Z,36
2022-08-27T05:32:36.054Z,40
2022-08-27T05:39:20.917Z,52
2022-08-27T05:40:01.422Z,56
2022-08-27T05:40:41.886Z,56
2022-08-27T05:41:22.359Z,56
2022-08-27T05:42:02.862Z,60
2022-08-27T05:42:43.379Z,64
2022-08-27T05:43:23.896Z,64
2022-08-27T05:44:13.950Z,68
2022-08-27T05:44:45.445Z,72
2022-08-27T05:45:25.363Z,72
2022-08-27T05:46:05.940Z,76
2022-08-27T06:32:27.514Z,144
2022-08-27T06:33:07.484Z,144
2022-08-27T06:33:47.873Z,144
2022-08-27T06:34:28.362Z,144
2022-08-27T06:35:08.817Z,148
2022-08-27T06:35:49.347Z,152
2022-08-27T06:36:29.765Z,156
2022-08-27T06:37:10.249Z,160
2022-08-27T06:37:50.725Z,160
2022-08-27T06:44:35.696Z,204
2022-08-27T06:45:16.154Z,204
2022-08-27T06:45:56.624Z,204
2022-08-27T06:46:37.102Z,204
2022-08-27T06:49:51.115Z,208
2022-08-27T06:50:33.058Z,204
2022-08-27T06:51:13.631Z,204
2022-08-27T06:51:54.143Z,208
2022-08-27T06:52:34.553Z,208
2022-08-27T06:53:15.035Z,212
2022-08-27T06:53:55.496Z,208
2022-08-27T07:01:20.866Z,220
2022-08-27T07:02:01.327Z,216
2022-08-27T07:02:41.783Z,212
2022-08-27T07:03:22.199Z,220
2022-08-27T07:04:02.654Z,220
2022-08-27T07:04:43.130Z,220
2022-08-27T07:05:23.602Z,224
2022-08-27T07:06:04.071Z,224
2022-08-27T07:07:26.509Z,224
2022-08-27T07:08:05.453Z,224
2022-08-27T07:15:30.734Z,240
2022-08-27T07:16:11.217Z,228
2022-08-27T07:16:51.578Z,220
2022-08-27T07:17:32.073Z,200
2022-08-27T07:18:12.693Z,224
2022-08-27T07:18:53.021Z,236
2022-08-27T07:19:33.506Z,240
2022-08-27T07:20:14.032Z,240
2022-08-27T07:20:54.500Z,240
2022-08-27T07:21:34.931Z,236
2022-08-27T07:22:15.378Z,232
2022-08-27T07:29:40.774Z,236
2022-08-27T07:30:21.302Z,232
2022-08-27T07:31:01.878Z,216
2022-08-27T07:31:42.212Z,212
2022-08-27T07:32:22.713Z,228
2022-08-27T07:33:03.308Z,244
2022-08-27T07:33:45.426Z,236
2022-08-27T07:34:24.148Z,240
2022-08-27T07:35:04.648Z,248
2022-08-27T07:35:45.094Z,256
2022-08-27T07:36:25.563Z,256
2022-08-27T07:43:50.812Z,264
2022-08-27T07:44:34.603Z,284
2022-08-27T07:45:11.796Z,264
2022-08-27T07:45:52.288Z,240
2022-08-27T07:46:34.926Z,224
2022-08-27T07:47:13.250Z,220
2022-08-27T07:47:53.696Z,252
2022-08-27T07:48:34.139Z,284
2022-08-27T07:49:14.684Z,292
2022-08-27T07:49:55.122Z,300
2022-08-27T07:50:35.725Z,304
2022-08-27T07:57:20.817Z,292
2022-08-27T07:58:01.268Z,272
2022-08-27T07:58:41.775Z,264
2022-08-27T07:59:22.261Z,260
2022-08-27T08:00:02.726Z,276
2022-08-27T08:00:43.208Z,284
2022-08-27T08:01:23.732Z,296
2022-08-27T08:02:04.211Z,272
2022-08-27T08:02:44.758Z,264
2022-08-27T08:03:25.148Z,280
2022-08-27T08:04:05.638Z,272
2022-08-27T08:10:50.765Z,264
2022-08-27T08:11:31.228Z,304
2022-08-27T08:12:11.678Z,312
2022-08-27T08:12:52.143Z,336
2022-08-27T08:13:32.614Z,352
2022-08-27T08:14:13.121Z,324
2022-08-27T08:14:54.211Z,316
2022-08-27T08:15:34.664Z,276
2022-08-27T08:16:15.114Z,284
2022-08-27T08:16:55.690Z,340
2022-08-27T08:23:40.567Z,344
2022-08-27T08:24:21.109Z,364
2022-08-27T08:25:01.556Z,340
2022-08-27T08:25:42.060Z,344
2022-08-27T08:26:22.544Z,344
2022-08-27T08:27:07.040Z,356
2022-08-27T08:27:43.530Z,328
2022-08-27T08:28:24.078Z,332
2022-08-27T08:29:04.683Z,332
2022-08-27T08:29:45.060Z,320
2022-08-27T08:30:25.445Z,336
2022-08-27T08:37:50.819Z,368
2022-08-27T08:38:31.240Z,372
2022-08-27T08:39:11.785Z,376
2022-08-27T08:39:52.304Z,384
2022-08-27T08:40:32.871Z,376
2022-08-27T08:41:13.294Z,372
2022-08-27T08:41:53.821Z,380
2022-08-27T08:42:34.642Z,376
2022-08-27T08:43:15.145Z,376
2022-08-27T08:43:55.632Z,360
2022-08-27T08:50:40.789Z,388
2022-08-27T08:51:21.393Z,392
2022-08-27T08:52:02.014Z,388
2022-08-27T08:52:42.506Z,384
2022-08-27T08:53:23.101Z,372
2022-08-27T08:54:03.500Z,388
2022-08-27T08:54:44.146Z,404
2022-08-27T08:55:25.042Z,412
2022-08-27T09:01:31.105Z,488
2022-08-27T09:02:13.500Z,436
2022-08-27T09:02:54.107Z,468
2022-08-27T09:04:14.760Z,460
2022-08-27T09:04:55.297Z,480
2022-08-27T09:05:41.298Z,492
2022-08-27T09:06:21.432Z,544
2022-08-27T09:07:02.036Z,580
2022-08-27T09:07:43.789Z,572
2022-08-27T09:08:34.390Z,544
2022-08-27T09:12:30.770Z,548
2022-08-27T09:13:12.231Z,532
2022-08-27T09:13:52.947Z,520
2022-08-27T09:14:33.473Z,524
2022-08-27T09:15:14.077Z,540
2022-08-27T09:15:54.895Z,528
2022-08-27T09:16:35.439Z,552
2022-08-27T09:22:40.510Z,592
2022-08-27T09:23:21.093Z,580
2022-08-27T09:24:01.529Z,548
2022-08-27T09:24:42.121Z,548
2022-08-27T09:25:22.757Z,524
2022-08-27T09:26:03.251Z,552
2022-08-27T09:26:43.720Z,596
2022-08-27T09:27:24.204Z,636
2022-08-27T09:28:04.739Z,616
2022-08-27T09:28:45.163Z,616
2022-08-27T09:36:10.606Z,744
2022-08-27T09:36:51.157Z,740
2022-08-27T09:37:33.860Z,736
2022-08-27T09:38:12.361Z,764
2022-08-27T09:38:54.576Z,776
2022-08-27T09:39:33.274Z,732
2022-08-27T09:40:18.481Z,692
2022-08-27T09:40:54.258Z,680
2022-08-27T09:41:34.732Z,684
2022-08-27T09:42:15.239Z,684
2022-08-27T09:54:49.071Z,696
2022-08-27T09:55:38.247Z,720
2022-08-27T09:56:28.396Z,736
2022-08-27T09:57:17.666Z,708
2022-08-27T09:58:07.088Z,680
2022-08-27T09:58:56.009Z,656
2022-08-27T10:02:21.126Z,772
2022-08-27T10:03:02.039Z,840
2022-08-27T10:03:42.605Z,872
2022-08-27T10:04:23.267Z,876
2022-08-27T10:07:49.854Z,884
2022-08-27T10:08:28.069Z,904
2022-08-27T10:09:10.609Z,928
2022-08-27T10:13:56.413Z,804
2022-08-27T10:14:36.965Z,816
2022-08-27T10:15:17.204Z,816
2022-08-27T10:15:57.803Z,824
2022-08-27T10:16:38.384Z,848
2022-08-27T10:17:20.976Z,872
2022-08-27T10:24:07.754Z,1288
2022-08-27T10:25:07.577Z,1348
2022-08-27T10:25:48.224Z,1360
2022-08-27T10:26:33.253Z,1388
2022-08-27T10:27:11.106Z,1416
2022-08-27T10:27:51.604Z,1444
2022-08-27T10:28:32.305Z,1464
2022-08-27T10:34:17.334Z,1456
2022-08-27T10:34:57.424Z,1412
2022-08-27T10:35:40.594Z,1388
2022-08-27T10:36:18.494Z,1380
2022-08-27T10:40:23.525Z,1304
2022-08-27T10:41:04.094Z,1340
2022-08-27T10:41:44.855Z,1380
2022-08-27T10:42:25.849Z,1420
2022-08-27T10:43:06.372Z,1436
2022-08-27T10:43:46.881Z,1428
2022-08-27T10:44:27.409Z,1432
2022-08-27T10:45:08.128Z,1420
2022-08-27T10:49:52.998Z,1216
2022-08-27T10:50:33.427Z,1224
2022-08-27T10:51:14.075Z,1180
2022-08-27T10:51:54.580Z,1124
2022-08-27T10:52:35.114Z,1068
2022-08-27T10:55:15.635Z,944
2022-08-27T11:00:09.594Z,1220
2022-08-27T11:00:49.874Z,1280
2022-08-27T11:01:30.435Z,1324
2022-08-27T11:02:12.197Z,1380
2022-08-27T11:02:54.535Z,1444
2022-08-27T11:07:07.662Z,1484
2022-08-27T11:08:00.729Z,1432
2022-08-27T11:08:47.460Z,1400
2022-08-27T11:09:36.341Z,1368
2022-08-27T11:10:23.849Z,1376
2022-08-27T11:11:51.677Z,1316
2022-08-27T11:12:15.401Z,1240
2022-08-27T11:12:39.636Z,1172
2022-08-27T11:13:20.160Z,1132
2022-08-27T11:16:46.367Z,1160
2022-08-27T11:17:26.802Z,1156
2022-08-27T11:18:08.497Z,1136
2022-08-27T11:18:48.112Z,1124
2022-08-27T11:19:28.799Z,1116
2022-08-27T11:20:09.312Z,1132
2022-08-27T11:20:49.804Z,1144
2022-08-27T11:21:30.297Z,1160
2022-08-27T11:26:55.047Z,1096
2022-08-27T11:27:35.590Z,1084
2022-08-27T11:28:16.072Z,1068
2022-08-27T11:28:56.590Z,1032
2022-08-27T11:29:37.094Z,996
2022-08-27T11:30:18.400Z,956
2022-08-27T11:30:58.938Z,936
2022-08-27T11:31:39.488Z,920
2022-08-27T11:32:19.876Z,904
2022-08-27T11:35:45.175Z,840
2022-08-27T11:36:25.926Z,836
2022-08-27T11:37:06.367Z,832
2022-08-27T11:37:46.837Z,828
2022-08-27T11:38:27.715Z,836
2022-08-27T11:39:08.169Z,860
2022-08-27T11:39:51.772Z,892
2022-08-27T11:40:29.366Z,916
2022-08-27T11:41:10.086Z,940
2022-08-27T11:47:15.181Z,1076
2022-08-27T11:47:55.707Z,1080
2022-08-27T11:48:36.469Z,1084
2022-08-27T11:49:17.017Z,1080
2022-08-27T11:49:57.652Z,1060
2022-08-27T11:53:11.993Z,980
2022-08-27T11:53:52.853Z,968
2022-08-27T12:33:04.430Z,872
2022-08-27T12:33:45.301Z,876
2022-08-27T12:34:26.328Z,884
2022-08-27T12:35:07.360Z,892
2022-08-27T12:35:48.346Z,908
2022-08-27T12:36:29.314Z,940
2022-08-27T12:39:13.953Z,1280
2022-08-27T12:39:54.983Z,1380
2022-08-27T12:40:35.953Z,1432
2022-08-27T12:41:19.589Z,1436
2022-08-27T12:44:57.154Z,1428
2022-08-27T12:45:37.628Z,1420
2022-08-27T12:46:18.256Z,1412
2022-08-27T12:46:58.705Z,1392
2022-08-27T12:47:39.180Z,1372
2022-08-27T12:48:19.673Z,1368
2022-08-27T12:49:01.338Z,1372
2022-08-27T12:50:21.428Z,1420
2022-08-27T12:51:01.915Z,1420
2022-08-27T12:51:42.454Z,1412
2022-08-27T12:52:22.899Z,1384
2022-08-27T12:59:07.977Z,1020
2022-08-27T12:59:48.488Z,996
2022-08-27T13:00:29.068Z,968
2022-08-27T13:01:09.767Z,944
2022-08-27T13:01:50.125Z,948
2022-08-27T13:02:30.530Z,952
2022-08-27T13:03:11.003Z,960
2022-08-27T13:03:51.490Z,976
2022-08-27T13:04:31.987Z,1012
2022-08-27T13:05:12.477Z,1048
2022-08-27T13:05:53.003Z,1100
2022-08-27T13:12:37.901Z,1248
2022-08-27T13:13:18.466Z,1236
2022-08-27T13:13:58.950Z,1240
2022-08-27T13:14:39.407Z,1240
2022-08-27T13:15:19.918Z,1244
2022-08-27T13:16:00.501Z,1252
2022-08-27T13:16:40.924Z,1260
2022-08-27T13:17:21.451Z,1268
2022-08-27T13:18:02.437Z,1276
2022-08-27T13:18:42.470Z,1276
2022-08-27T13:19:22.978Z,1260
2022-08-27T13:27:26.347Z,1080
2022-08-27T13:28:06.626Z,1060
2022-08-27T13:28:47.111Z,1048
2022-08-27T13:29:27.614Z,1028
2022-08-27T13:30:08.074Z,1024
2022-08-27T13:30:48.572Z,1024
2022-08-27T13:31:29.057Z,1028
2022-08-27T13:32:09.560Z,1024
2022-08-27T13:32:50.066Z,1016
2022-08-27T13:33:30.556Z,1004
2022-08-27T13:40:15.511Z,896
2022-08-27T13:40:56.713Z,904
2022-08-27T13:41:37.210Z,908
2022-08-27T13:42:17.749Z,912
2022-08-27T13:42:58.257Z,920
2022-08-27T13:43:38.749Z,928
2022-08-27T13:44:19.234Z,936
2022-08-27T13:44:59.764Z,944
2022-08-27T13:45:40.195Z,944
2022-08-27T13:52:25.187Z,872
2022-08-27T13:53:05.650Z,872
2022-08-27T13:53:46.132Z,876
2022-08-27T13:54:26.647Z,884
2022-08-27T13:55:07.101Z,892
2022-08-27T13:55:47.615Z,904
2022-08-27T13:56:28.112Z,908
2022-08-27T13:57:08.598Z,912
2022-08-27T13:57:50.093Z,912
2022-08-27T14:04:35.273Z,976
2022-08-27T14:05:15.754Z,988
2022-08-27T14:05:56.336Z,996
2022-08-27T14:06:36.705Z,992
2022-08-27T14:07:17.215Z,996
2022-08-27T14:07:57.714Z,1016
2022-08-27T14:08:38.207Z,1024
2022-08-27T14:09:18.748Z,1024
2022-08-27T14:09:59.261Z,1024
2022-08-27T14:10:39.774Z,1016
2022-08-27T14:11:20.206Z,1008
2022-08-27T14:18:05.281Z,992
2022-08-27T14:18:58.732Z,992
2022-08-27T14:19:26.245Z,996
2022-08-27T14:20:06.677Z,996
2022-08-27T14:20:47.178Z,1000
2022-08-27T14:21:27.647Z,1008
2022-08-27T14:22:08.165Z,1012
2022-08-27T14:22:48.645Z,1024
2022-08-27T14:23:29.110Z,1032
2022-08-27T14:24:09.608Z,1040
2022-08-27T14:24:50.146Z,1048
2022-08-27T14:32:15.485Z,972
2022-08-27T14:32:56.234Z,956
2022-08-27T14:33:36.462Z,948
2022-08-27T14:34:16.942Z,940
2022-08-27T14:34:57.487Z,936
2022-08-27T14:35:37.980Z,928
2022-08-27T14:36:18.472Z,916
2022-08-27T14:36:59.037Z,908
2022-08-27T14:37:39.547Z,908
2022-08-27T14:38:20.085Z,912
2022-08-27T14:39:00.554Z,916
2022-08-27T14:45:45.382Z,840
2022-08-27T14:46:25.893Z,836
2022-08-27T14:47:09.498Z,820
2022-08-27T14:47:46.787Z,808
2022-08-27T14:48:27.640Z,796
2022-08-27T14:49:07.745Z,776
2022-08-27T14:49:48.280Z,768
2022-08-27T14:50:28.721Z,756
2022-08-27T14:51:09.238Z,760
2022-08-27T14:51:49.697Z,752
2022-08-27T14:52:30.276Z,748
2022-08-27T14:59:55.618Z,676
2022-08-27T15:00:36.090Z,672
2022-08-27T15:01:16.644Z,672
2022-08-27T15:01:57.087Z,672
2022-08-27T15:02:37.576Z,672
2022-08-27T15:03:18.006Z,672
2022-08-27T15:03:58.510Z,664
2022-08-27T15:04:39.064Z,660
2022-08-27T15:05:19.601Z,660
2022-08-27T15:06:00.009Z,656
2022-08-27T15:06:40.486Z,652
2022-08-27T15:12:45.550Z,644
2022-08-27T15:13:26.031Z,652
2022-08-27T15:14:06.495Z,660
2022-08-27T15:14:47.006Z,668
2022-08-27T15:15:27.479Z,676
2022-08-27T15:16:07.959Z,684
2022-08-27T15:16:48.424Z,700
2022-08-27T15:17:34.816Z,712
2022-08-27T15:18:09.549Z,732
2022-08-27T15:18:53.783Z,740
2022-08-27T15:19:30.554Z,748
2022-08-27T15:26:15.400Z,756
2022-08-27T15:26:55.878Z,760
2022-08-27T15:27:38.362Z,760
2022-08-27T15:28:16.854Z,756
2022-08-27T15:28:57.359Z,756
2022-08-27T15:29:37.822Z,752
2022-08-27T15:30:18.302Z,756
2022-08-27T15:31:39.329Z,764
2022-08-27T15:32:19.746Z,760
2022-08-27T15:33:00.265Z,756
2022-08-27T15:40:25.569Z,676
2022-08-27T15:41:06.016Z,668
2022-08-27T15:42:03.286Z,660
2022-08-27T15:42:26.984Z,652
2022-08-27T15:43:07.447Z,652
2022-08-27T15:43:47.946Z,648
2022-08-27T15:44:28.421Z,656
2022-08-27T15:45:08.923Z,656
2022-08-27T15:45:49.419Z,660
2022-08-27T15:46:29.965Z,656
2022-08-27T15:47:10.391Z,656
2022-08-27T15:53:55.302Z,560
2022-08-27T15:54:35.748Z,560
2022-08-27T15:55:16.225Z,560
2022-08-27T15:55:56.713Z,564
2022-08-27T15:56:37.176Z,564
2022-08-27T15:57:17.654Z,564
2022-08-27T15:57:58.202Z,556
2022-08-27T15:58:38.685Z,548
2022-08-27T15:59:19.150Z,540
2022-08-27T15:59:59.655Z,532
2022-08-27T16:00:40.107Z,520
2022-08-27T16:06:45.346Z,512
2022-08-27T16:07:25.860Z,500
2022-08-27T16:08:06.318Z,492
2022-08-27T16:08:46.806Z,480
2022-08-27T16:09:27.365Z,472
2022-08-27T16:10:07.938Z,468
2022-08-27T16:10:48.408Z,456
2022-08-27T16:11:28.949Z,448
2022-08-27T16:12:09.404Z,440
2022-08-27T16:12:49.917Z,432
2022-08-27T16:13:30.403Z,428
2022-08-27T16:20:15.288Z,368
2022-08-27T16:20:55.705Z,368
2022-08-27T16:21:36.178Z,360
2022-08-27T16:22:16.662Z,348
2022-08-27T16:22:57.139Z,336
2022-08-27T16:23:37.577Z,328
2022-08-27T16:24:18.060Z,320
2022-08-27T16:24:58.577Z,320
2022-08-27T16:25:39.029Z,320
2022-08-27T16:26:19.501Z,320
2022-08-27T16:26:59.988Z,320
2022-08-27T16:27:40.485Z,324
2022-08-27T16:34:25.308Z,300
2022-08-27T16:35:05.770Z,304
2022-08-27T16:35:46.276Z,304
2022-08-27T16:36:26.739Z,296
2022-08-27T16:37:07.200Z,300
2022-08-27T16:37:47.773Z,296
2022-08-27T16:38:28.274Z,292
2022-08-27T16:39:08.834Z,292
2022-08-27T16:39:50.283Z,292
2022-08-27T16:46:35.317Z,264
2022-08-27T16:47:15.711Z,264
2022-08-27T16:47:56.195Z,260
2022-08-27T16:48:36.673Z,260
2022-08-27T16:49:17.211Z,256
2022-08-27T16:49:57.664Z,256
2022-08-27T16:50:38.181Z,256
2022-08-27T16:51:18.637Z,248
2022-08-27T16:51:59.144Z,248
2022-08-27T16:52:39.630Z,240
2022-08-27T16:53:20.092Z,236
2022-08-27T17:00:45.384Z,204
2022-08-27T17:01:25.924Z,204
2022-08-27T17:02:06.395Z,204
2022-08-27T17:02:46.892Z,200
2022-08-27T17:03:27.325Z,200
2022-08-27T17:04:11.200Z,200
2022-08-27T17:04:51.102Z,196
2022-08-27T17:05:33.756Z,196
2022-08-27T17:06:09.927Z,188
2022-08-27T17:06:49.732Z,188
2022-08-27T17:07:30.229Z,184
2022-08-27T17:14:15.261Z,136
2022-08-27T17:14:55.769Z,136
2022-08-27T17:15:36.251Z,136
2022-08-27T17:16:16.817Z,132
2022-08-27T17:16:57.261Z,132
2022-08-27T17:17:37.751Z,128
2022-08-27T17:18:18.261Z,128
2022-08-27T17:18:58.759Z,128
2022-08-27T17:19:39.265Z,120
2022-08-27T17:20:19.734Z,120
2022-08-27T17:21:00.857Z,116
2022-08-27T17:27:05.340Z,100
2022-08-27T17:27:45.881Z,100
2022-08-27T17:28:26.353Z,100
2022-08-27T17:29:06.872Z,96
2022-08-27T17:30:27.911Z,96
2022-08-27T17:31:08.412Z,92
2022-08-27T17:31:48.811Z,92
2022-08-27T17:32:29.316Z,88
2022-08-27T17:33:09.844Z,88
2022-08-27T17:33:50.335Z,84
2022-08-27T17:40:35.289Z,72
2022-08-27T17:41:15.789Z,72
2022-08-27T17:41:56.295Z,68
2022-08-27T17:42:36.779Z,68
2022-08-27T17:43:17.268Z,64
2022-08-27T17:43:57.729Z,60
2022-08-27T17:44:38.199Z,60
2022-08-27T17:45:18.763Z,60
2022-08-27T17:45:59.345Z,60
2022-08-27T17:46:39.749Z,56
2022-08-27T17:47:20.274Z,56
2022-08-27T18:34:49.799Z,4
2022-08-27T18:35:30.249Z,4
2022-08-27T18:36:10.846Z,4
2022-08-27T18:36:51.216Z,4
2022-08-27T18:37:31.759Z,4
2022-08-27T18:38:12.460Z,0
2022-08-27T18:38:52.737Z,0
2022-08-27T18:39:36.494Z,0
2022-08-27T18:40:13.697Z,4
2022-08-27T18:40:54.129Z,4
2022-08-27T18:41:34.620Z,4
2022-08-27T18:48:19.420Z,0
2022-08-27T18:48:59.888Z,0
2022-08-27T18:49:40.384Z,0
2022-08-27T18:50:20.944Z,0
2022-08-27T18:51:01.374Z,0
2022-08-27T18:51:41.872Z,0
2022-08-27T18:52:22.328Z,0
2022-08-27T18:53:02.852Z,0
2022-08-27T18:54:23.782Z,0
2022-08-27T18:55:04.285Z,0
2022-08-27T18:57:18.460Z,0
2022-08-27T18:57:58.786Z,0
2022-08-27T18:58:39.918Z,0
2022-08-27T18:59:20.991Z,0
2022-08-27T19:00:02.099Z,0
2022-08-27T19:03:27.627Z,0
2022-08-27T19:04:08.631Z,0
2022-08-27T19:04:49.774Z,0
2022-08-27T19:05:30.793Z,0
2022-08-27T19:06:11.852Z,0
2022-08-27T19:10:18.249Z,0
2022-08-27T19:10:59.228Z,0
2022-08-27T19:11:40.549Z,0
2022-08-27T19:12:21.519Z,0
2022-08-27T19:13:02.664Z,0
2022-08-27T19:16:27.512Z,0
2022-08-27T19:17:08.540Z,0
2022-08-27T19:17:49.729Z,0
2022-08-27T19:18:30.755Z,0
2022-08-27T19:19:11.878Z,0
2022-08-27T19:19:53.851Z,0
2022-08-27T19:21:57.303Z,0
2022-08-27T19:22:38.632Z,0
2022-08-27T19:23:22.494Z,0
2022-08-27T19:24:02.225Z,0
2022-08-27T19:26:47.748Z,0
2022-08-27T19:27:28.798Z,0
2022-08-27T19:28:09.835Z,0
2022-08-27T19:28:50.880Z,0
2022-08-27T19:29:31.888Z,0
2022-08-27T19:30:12.996Z,0
2022-08-27T19:32:57.831Z,0
2022-08-27T19:33:38.891Z,0
2022-08-27T19:34:20.025Z,0
2022-08-27T19:35:00.902Z,0
2022-08-27T19:35:42.411Z,0
2022-08-27T19:39:07.622Z,0
2022-08-27T19:39:48.823Z,0
2022-08-27T19:40:29.811Z,0
2022-08-27T19:41:10.646Z,0
2022-08-27T19:41:52.593Z,0
2022-08-27T19:44:37.690Z,0
2022-08-27T19:45:21.903Z,0
2022-08-27T19:46:00.795Z,0
2022-08-27T19:46:41.759Z,0
2022-08-27T19:47:23.044Z,0
2022-08-27T19:49:27.890Z,0
2022-08-27T19:50:08.103Z,0
2022-08-27T19:50:49.106Z,0
2022-08-27T19:51:30.563Z,0
2022-08-27T19:52:11.455Z,0
2022-08-27T19:52:52.677Z,0
2022-08-27T19:54:17.956Z,0
2022-08-27T19:55:14.748Z,0
2022-08-27T19:55:40.173Z,0
2022-08-27T19:56:21.425Z,0
2022-08-27T19:57:02.647Z,0
2022-08-27T19:59:20.268Z,0
2022-08-27T19:59:50.876Z,0
2022-08-27T20:00:33.803Z,0
2022-08-27T20:01:57.914Z,0
2022-08-27T20:02:40.035Z,0
2022-08-27T20:03:21.506Z,0
2022-08-27T20:04:03.082Z,0
2022-08-27T20:08:15.334Z,0
2022-08-27T20:08:56.062Z,0
2022-08-27T20:09:36.704Z,0
2022-08-27T20:10:18.880Z,0
2022-08-27T20:10:59.173Z,0
2022-08-27T20:17:05.634Z,0
2022-08-27T20:17:46.052Z,0